Time;durP1;ratioP1;P1;durP2;ratioP2;P2;SDS_P1;SDS_P2;PMS_P1;PMS_P2;Temp;Humidity;BMP_temperature;BMP_pressure;BME280_temperature;BME280_humidity;BME280_pressure;Samples;Min_cycle;Max_cycle;Signal;HPM_P1;HPM_P2
2022/07/23 00:00:15;;;;;;;4.20;2.97;;;15.00;99.90;;;;;;5046771;28;20397;-59
2022/07/23 00:02:41;;;;;;;10.80;3.88;;;15.00;99.90;;;;;;5046541;28;20067;-59
2022/07/23 00:05:07;;;;;;;4.60;3.42;;;14.90;99.90;;;;;;5045442;28;20045;-59
2022/07/23 00:07:33;;;;;;;4.50;3.60;;;14.90;99.90;;;;;;5046618;28;20045;-59
2022/07/23 00:09:59;;;;;;;3.15;2.95;;;14.90;99.90;;;;;;5046598;28;20051;-59
2022/07/23 00:12:25;;;;;;;5.22;3.00;;;14.80;99.90;;;;;;5046273;28;20045;-59
2022/07/23 00:14:51;;;;;;;4.38;3.38;;;14.80;99.90;;;;;;5046250;28;20041;-59
2022/07/23 00:17:16;;;;;;;6.07;3.10;;;14.80;99.90;;;;;;5046579;28;20060;-59
2022/07/23 00:19:42;;;;;;;3.22;2.85;;;14.70;99.90;;;;;;5045881;28;20048;-59
2022/07/23 00:22:08;;;;;;;3.80;3.40;;;14.70;99.90;;;;;;5045945;28;20712;-59
2022/07/23 00:24:33;;;;;;;7.97;4.00;;;14.60;99.90;;;;;;5046023;28;20048;-59
2022/07/23 00:26:59;;;;;;;3.60;3.10;;;14.60;99.90;;;;;;5045874;28;20053;-59
2022/07/23 00:29:24;;;;;;;5.90;3.42;;;14.60;99.90;;;;;;5046835;28;20037;-59
2022/07/23 00:31:50;;;;;;;3.53;3.22;;;14.50;99.90;;;;;;5045363;28;20492;-59
2022/07/23 00:34:16;;;;;;;5.03;3.25;;;14.50;99.90;;;;;;5046337;28;20520;-59
2022/07/23 00:36:41;;;;;;;5.70;3.22;;;14.40;99.90;;;;;;5046081;28;20080;-58
2022/07/23 00:39:07;;;;;;;4.00;3.60;;;14.50;99.90;;;;;;5045221;28;20115;-59
2022/07/23 00:41:33;;;;;;;5.22;3.55;;;14.40;99.90;;;;;;5046229;28;20063;-59
2022/07/23 00:44:22;;;;;;;4.82;3.33;;;14.40;99.90;;;;;;5046056;28;20524;-59
2022/07/23 00:46:54;;;;;;;4.70;3.65;;;14.40;99.90;;;;;;5045428;28;20510;-59
2022/07/23 00:49:25;;;;;;;3.95;3.20;;;14.40;99.90;;;;;;5045948;28;20051;-59
2022/07/23 00:51:51;;;;;;;4.13;3.70;;;14.30;99.90;;;;;;5045670;28;20045;-59
2022/07/23 00:54:19;;;;;;;5.03;3.50;;;14.30;99.90;;;;;;5045085;28;20526;-59
2022/07/23 00:56:45;;;;;;;4.57;3.13;;;14.30;99.90;;;;;;5045655;28;20412;-59
2022/07/23 00:59:11;;;;;;;3.58;3.17;;;14.30;99.90;;;;;;5046366;28;20045;-59
2022/07/23 01:01:37;;;;;;;4.05;3.00;;;14.30;99.90;;;;;;5045373;28;20048;-58
2022/07/23 01:04:03;;;;;;;4.53;3.53;;;14.20;99.90;;;;;;5045530;28;20140;-59
2022/07/23 01:06:29;;;;;;;4.70;3.17;;;14.20;99.90;;;;;;5045688;28;20124;-59
2022/07/23 01:08:55;;;;;;;4.40;4.00;;;14.30;99.90;;;;;;5048441;28;20045;-59
2022/07/23 01:11:23;;;;;;;5.68;3.10;;;14.30;99.90;;;;;;5049745;28;20037;-58
2022/07/23 01:13:49;;;;;;;3.50;3.20;;;14.20;99.90;;;;;;5049507;28;20052;-59
2022/07/23 01:16:14;;;;;;;4.38;3.30;;;14.30;99.90;;;;;;5048854;28;20056;-59
2022/07/23 01:18:40;;;;;;;5.63;3.55;;;14.30;99.90;;;;;;5049043;28;20037;-59
2022/07/23 01:21:06;;;;;;;7.05;4.10;;;14.30;99.90;;;;;;5048667;28;20048;-59
2022/07/23 01:23:32;;;;;;;6.22;3.58;;;14.30;99.90;;;;;;5049057;28;20504;-59
2022/07/23 01:25:57;;;;;;;3.83;3.53;;;14.30;99.90;;;;;;5049270;28;20044;-59
2022/07/23 01:28:23;;;;;;;5.65;3.38;;;14.30;99.90;;;;;;5049020;28;20047;-59
2022/07/23 01:30:48;;;;;;;4.70;4.30;;;14.30;99.90;;;;;;5048802;28;20555;-59
2022/07/23 01:33:15;;;;;;;4.50;3.38;;;14.20;99.90;;;;;;5049118;28;20049;-58
2022/07/23 01:35:40;;;;;;;6.47;4.18;;;14.10;99.90;;;;;;5048434;28;20044;-59
2022/07/23 01:38:06;;;;;;;8.70;4.13;;;14.20;99.90;;;;;;5048693;28;20044;-59
2022/07/23 01:40:32;;;;;;;4.63;3.67;;;14.20;99.90;;;;;;5049136;28;20041;-59
2022/07/23 01:42:57;;;;;;;4.78;3.95;;;14.20;99.90;;;;;;5047989;28;20052;-59
2022/07/23 01:45:23;;;;;;;5.35;4.10;;;14.20;99.90;;;;;;5049112;28;20048;-58
2022/07/23 01:47:49;;;;;;;4.18;3.78;;;14.20;99.90;;;;;;5048840;28;20037;-59
2022/07/23 01:50:15;;;;;;;5.35;3.38;;;14.20;99.90;;;;;;5047952;28;20044;-59
2022/07/23 01:52:40;;;;;;;7.47;4.18;;;14.30;99.90;;;;;;5048923;28;20044;-59
2022/07/23 01:55:07;;;;;;;12.07;5.03;;;14.20;99.90;;;;;;5048595;28;20447;-59
2022/07/23 01:57:33;;;;;;;11.40;5.35;;;14.30;99.90;;;;;;5047899;28;20067;-59
2022/07/23 01:59:58;;;;;;;5.75;4.45;;;14.30;99.90;;;;;;5048901;28;20534;-59
2022/07/23 02:02:24;;;;;;;7.60;3.90;;;14.30;99.90;;;;;;5048776;28;20052;-59
2022/07/23 02:04:50;;;;;;;5.60;4.38;;;14.30;99.90;;;;;;5047483;28;20044;-59
2022/07/23 02:07:16;;;;;;;4.43;3.78;;;14.30;99.90;;;;;;5048733;28;20080;-59
2022/07/23 02:09:42;;;;;;;8.52;4.20;;;14.40;99.90;;;;;;5048680;28;20040;-59
2022/07/23 02:12:07;;;;;;;4.20;3.80;;;14.30;99.90;;;;;;5047361;28;20040;-59
2022/07/23 02:14:33;;;;;;;5.30;3.63;;;14.40;99.90;;;;;;5047010;28;20053;-59
2022/07/23 02:16:59;;;;;;;5.10;3.55;;;14.40;99.90;;;;;;5048189;28;20041;-59
2022/07/23 02:19:25;;;;;;;5.47;3.85;;;14.50;99.90;;;;;;5047423;28;20190;-59
2022/07/23 02:21:50;;;;;;;8.15;4.35;;;14.40;99.90;;;;;;5048262;28;20459;-59
2022/07/23 02:24:16;;;;;;;5.15;3.53;;;14.50;99.90;;;;;;5047950;28;20048;-59
2022/07/23 02:26:42;;;;;;;5.90;3.58;;;14.60;99.90;;;;;;5047841;28;20044;-59
2022/07/23 02:29:08;;;;;;;4.07;3.70;;;14.40;99.90;;;;;;5047935;28;20535;-59
2022/07/23 02:31:34;;;;;;;6.82;4.25;;;14.40;99.90;;;;;;5047168;28;20088;-59
2022/07/23 02:34:00;;;;;;;6.70;4.18;;;14.40;99.90;;;;;;5047859;28;20092;-58
2022/07/23 02:36:26;;;;;;;4.45;4.03;;;14.40;99.90;;;;;;5048313;28;20073;-59
2022/07/23 02:38:51;;;;;;;7.32;4.40;;;14.40;99.90;;;;;;5047101;28;20073;-58
2022/07/23 02:41:17;;;;;;;6.15;4.03;;;14.50;99.90;;;;;;5047780;28;20055;-59
2022/07/23 02:43:42;;;;;;;5.60;4.53;;;14.30;99.90;;;;;;5047582;28;20102;-59
2022/07/23 02:46:08;;;;;;;6.05;4.57;;;14.60;99.90;;;;;;5046850;28;20500;-59
2022/07/23 02:48:34;;;;;;;4.82;4.25;;;14.30;99.90;;;;;;5047188;28;20061;-59
2022/07/23 02:50:59;;;;;;;7.28;4.40;;;14.30;99.90;;;;;;5047590;28;20037;-59
2022/07/23 02:53:25;;;;;;;5.20;4.70;;;14.40;99.90;;;;;;5046185;28;20545;-59
2022/07/23 02:55:51;;;;;;;17.77;5.18;;;14.30;99.90;;;;;;5046209;28;20068;-59
2022/07/23 02:58:17;;;;;;;6.63;4.68;;;14.40;99.90;;;;;;5047634;28;20057;-59
2022/07/23 03:00:43;;;;;;;7.22;4.60;;;14.50;99.90;;;;;;5047082;28;20053;-59
2022/07/23 03:03:09;;;;;;;5.47;4.88;;;14.30;99.90;;;;;;5047531;28;20536;-59
2022/07/23 03:05:35;;;;;;;4.93;4.47;;;14.30;99.90;;;;;;5047466;28;20045;-59
2022/07/23 03:08:01;;;;;;;8.13;4.47;;;14.30;99.90;;;;;;5046494;28;20041;-59
2022/07/23 03:10:26;;;;;;;6.47;4.57;;;14.30;99.90;;;;;;5047324;28;20098;-59
2022/07/23 03:12:52;;;;;;;6.97;4.80;;;14.30;99.90;;;;;;5047465;28;20049;-59
2022/07/23 03:15:18;;;;;;;5.00;4.60;;;14.30;99.90;;;;;;5046506;28;20048;-59
2022/07/23 03:17:43;;;;;;;7.68;5.00;;;14.30;99.90;;;;;;5047100;28;20053;-59
2022/07/23 03:20:09;;;;;;;5.20;4.72;;;14.30;99.90;;;;;;5047127;28;20051;-59
2022/07/23 03:22:35;;;;;;;7.43;5.28;;;14.20;99.90;;;;;;5046384;28;20047;-59
2022/07/23 03:25:01;;;;;;;9.35;5.55;;;14.30;99.90;;;;;;5046882;28;20399;-59
2022/07/23 03:27:29;;;;;;;7.40;4.65;;;14.20;99.90;;;;;;5046988;28;20094;-59
2022/07/23 03:29:56;;;;;;;5.78;5.03;;;14.20;99.90;;;;;;5046002;28;20128;-59
2022/07/23 03:32:23;;;;;;;6.07;4.53;;;14.30;99.90;;;;;;5047565;28;20053;-59
2022/07/23 03:34:49;;;;;;;8.82;4.88;;;14.20;99.90;;;;;;5045659;28;20132;-59
2022/07/23 03:37:14;;;;;;;19.42;4.93;;;14.20;99.90;;;;;;5046982;28;20450;-59
2022/07/23 03:39:40;;;;;;;9.93;4.72;;;14.20;99.90;;;;;;5046912;28;20041;-59
2022/07/23 03:42:07;;;;;;;9.82;4.65;;;14.10;99.90;;;;;;5045762;28;20045;-58
2022/07/23 03:44:33;;;;;;;8.02;4.63;;;14.20;99.90;;;;;;5046500;28;20048;-59
2022/07/23 03:46:59;;;;;;;5.38;4.57;;;14.10;99.90;;;;;;5046372;28;20041;-58
2022/07/23 03:49:24;;;;;;;8.32;4.35;;;14.30;99.90;;;;;;5046575;28;20098;-59
2022/07/23 03:51:50;;;;;;;5.07;4.35;;;14.20;99.90;;;;;;5046383;28;20045;-59
2022/07/23 03:54:16;;;;;;;8.00;4.10;;;14.20;99.90;;;;;;5046786;28;20045;-59
2022/07/23 03:56:42;;;;;;;6.20;4.60;;;14.30;99.90;;;;;;5045773;28;20561;-59
2022/07/23 03:59:08;;;;;;;5.43;4.50;;;14.30;99.90;;;;;;5046109;28;20071;-59
2022/07/23 04:01:34;;;;;;;5.07;4.25;;;14.30;99.90;;;;;;5046404;28;20499;-59
2022/07/23 04:04:00;;;;;;;4.47;4.05;;;14.30;99.90;;;;;;5045500;28;20041;-59
2022/07/23 04:06:26;;;;;;;6.40;4.00;;;14.30;99.90;;;;;;5047331;28;20055;-59
2022/07/23 04:08:51;;;;;;;5.07;4.57;;;14.30;99.90;;;;;;5028781;28;20488;-59
2022/07/23 04:11:17;;;;;;;5.38;4.07;;;14.60;99.90;;;;;;5045713;28;20044;-59
2022/07/23 04:13:43;;;;;;;4.95;3.83;;;14.40;99.90;;;;;;5046148;28;20041;-59
2022/07/23 04:16:08;;;;;;;7.00;4.75;;;14.40;99.90;;;;;;5046424;28;20044;-59
2022/07/23 04:18:34;;;;;;;7.93;4.60;;;14.40;99.90;;;;;;5045596;28;20124;-59
2022/07/23 04:21:00;;;;;;;5.13;3.67;;;14.40;99.90;;;;;;5045944;28;20364;-59
2022/07/23 04:23:25;;;;;;;5.13;3.95;;;14.40;99.90;;;;;;5046764;28;20041;-59
2022/07/23 04:25:51;;;;;;;5.60;3.92;;;14.50;99.90;;;;;;5045673;28;20091;-59
2022/07/23 04:28:17;;;;;;;5.20;4.03;;;14.40;99.90;;;;;;5046154;28;20488;-59
2022/07/23 04:30:42;;;;;;;6.78;3.92;;;14.40;99.90;;;;;;5046328;28;20045;-59
2022/07/23 04:33:08;;;;;;;3.40;3.10;;;14.50;99.90;;;;;;5045476;28;20045;-59
2022/07/23 04:35:34;;;;;;;4.07;3.67;;;14.40;99.90;;;;;;5045304;28;20501;-59
2022/07/23 04:38:00;;;;;;;5.82;4.10;;;14.50;99.90;;;;;;5045385;28;20049;-59
2022/07/23 04:40:26;;;;;;;6.32;3.63;;;14.50;99.90;;;;;;5046849;28;20326;-59
2022/07/23 04:42:52;;;;;;;6.15;3.40;;;14.50;99.90;;;;;;5049133;28;20408;-59
2022/07/23 04:45:18;;;;;;;4.13;3.72;;;14.50;99.90;;;;;;5049436;28;20044;-59
2022/07/23 04:47:44;;;;;;;5.40;3.78;;;14.50;99.90;;;;;;5050126;28;20066;-59
2022/07/23 04:50:09;;;;;;;5.80;4.28;;;14.60;99.90;;;;;;5049898;28;20384;-59
2022/07/23 04:52:35;;;;;;;5.72;3.60;;;14.60;99.90;;;;;;5049197;28;20130;-59
2022/07/23 04:55:00;;;;;;;5.80;4.10;;;14.60;99.90;;;;;;5049994;28;20128;-59
2022/07/23 04:57:26;;;;;;;4.88;3.80;;;14.70;99.90;;;;;;5049664;28;20144;-59
2022/07/23 04:59:52;;;;;;;3.72;3.28;;;14.60;99.90;;;;;;5049224;28;20632;-59
2022/07/23 05:02:17;;;;;;;5.80;3.30;;;14.60;99.90;;;;;;5049524;28;20052;-59
2022/07/23 05:04:43;;;;;;;5.47;3.63;;;14.60;99.90;;;;;;5049474;28;20559;-59
2022/07/23 05:07:09;;;;;;;3.60;3.30;;;14.60;99.90;;;;;;5048795;28;20128;-59
2022/07/23 05:09:34;;;;;;;3.60;3.30;;;14.60;99.90;;;;;;5049508;28;20045;-59
2022/07/23 05:12:00;;;;;;;5.88;3.78;;;14.60;99.90;;;;;;5049168;28;20048;-59
2022/07/23 05:14:26;;;;;;;4.93;3.20;;;14.50;99.90;;;;;;5049185;28;20067;-59
2022/07/23 05:16:52;;;;;;;5.15;3.85;;;14.50;99.90;;;;;;5049803;28;20060;-59
2022/07/23 05:19:17;;;;;;;4.78;3.45;;;14.50;99.90;;;;;;5049380;28;20116;-59
2022/07/23 05:21:43;;;;;;;5.30;3.72;;;14.50;99.90;;;;;;5048953;28;20049;-59
2022/07/23 05:24:09;;;;;;;3.92;3.58;;;14.50;99.90;;;;;;5049049;28;20124;-59
2022/07/23 05:26:34;;;;;;;5.57;3.47;;;14.50;99.90;;;;;;5049075;28;20075;-59
2022/07/23 05:29:00;;;;;;;5.55;3.65;;;14.60;99.90;;;;;;5048425;28;20161;-59
2022/07/23 05:31:26;;;;;;;5.85;3.63;;;14.60;99.90;;;;;;5049714;28;20033;-59
2022/07/23 05:33:51;;;;;;;6.07;4.10;;;14.60;99.90;;;;;;5048479;28;20662;-59
2022/07/23 05:36:17;;;;;;;10.40;3.80;;;14.70;99.90;;;;;;5048579;28;20041;-59
2022/07/23 05:38:43;;;;;;;4.28;3.40;;;14.70;99.90;;;;;;5048807;28;20068;-59
2022/07/23 05:41:08;;;;;;;3.55;3.25;;;14.70;99.90;;;;;;5048890;28;20045;-59
2022/07/23 05:43:34;;;;;;;6.82;3.70;;;14.90;99.90;;;;;;5048155;28;20055;-59
2022/07/23 05:45:59;;;;;;;3.97;3.58;;;14.80;99.90;;;;;;5048880;28;20048;-59
2022/07/23 05:48:25;;;;;;;4.15;3.25;;;14.90;99.90;;;;;;5048772;28;20411;-59
2022/07/23 05:50:51;;;;;;;4.65;3.03;;;15.00;99.90;;;;;;5048604;28;20048;-59
2022/07/23 05:53:17;;;;;;;5.05;3.03;;;14.90;99.90;;;;;;5048158;28;20045;-59
2022/07/23 05:55:42;;;;;;;4.35;2.95;;;15.00;99.90;;;;;;5048272;28;20044;-59
2022/07/23 05:58:08;;;;;;;3.63;3.33;;;15.00;99.90;;;;;;5048278;28;20092;-59
2022/07/23 06:00:34;;;;;;;3.80;2.95;;;15.10;99.90;;;;;;5048664;28;20049;-59
2022/07/23 06:03:00;;;;;;;4.50;3.15;;;15.10;99.90;;;;;;5047828;28;20547;-59
2022/07/23 06:05:26;;;;;;;2.85;2.53;;;15.10;99.90;;;;;;5049038;28;20044;-59
2022/07/23 06:07:53;;;;;;;4.95;2.40;;;15.10;99.90;;;;;;5049026;28;20355;-59
2022/07/23 06:10:19;;;;;;;5.35;2.75;;;15.20;99.90;;;;;;5047898;28;20052;-59
2022/07/23 06:12:44;;;;;;;2.92;2.42;;;15.20;99.90;;;;;;5048588;28;20120;-59
2022/07/23 06:15:10;;;;;;;2.92;2.08;;;15.20;99.90;;;;;;5054311;28;20111;-60
2022/07/23 06:17:38;;;;;;;5.80;2.03;;;15.30;99.90;;;;;;5056748;28;20045;-60
2022/07/23 06:20:05;;;;;;;2.33;2.13;;;15.30;99.90;;;;;;5057341;28;20052;-59
2022/07/23 06:22:31;;;;;;;2.30;1.95;;;15.40;99.90;;;;;;5056869;28;20037;-59
2022/07/23 06:24:56;;;;;;;3.33;2.00;;;15.40;99.90;;;;;;5049962;28;20542;-60
2022/07/23 06:27:22;;;;;;;5.00;1.70;;;15.50;99.90;;;;;;5048694;28;20060;-60
2022/07/23 06:29:48;;;;;;;1.52;1.38;;;15.40;99.90;;;;;;5048349;28;20041;-60
2022/07/23 06:32:13;;;;;;;2.75;1.30;;;15.50;99.90;;;;;;5047606;28;20056;-60
2022/07/23 06:34:39;;;;;;;2.78;1.50;;;15.60;99.90;;;;;;5048502;28;20049;-60
2022/07/23 06:37:05;;;;;;;2.60;1.10;;;15.70;99.90;;;;;;5047806;28;20049;-60
2022/07/23 06:39:30;;;;;;;1.55;1.17;;;15.70;99.90;;;;;;5063024;28;20348;-60
2022/07/23 06:41:56;;;;;;;1.52;0.90;;;15.70;99.90;;;;;;5047856;28;20048;-60
2022/07/23 06:44:22;;;;;;;2.00;0.70;;;15.90;99.90;;;;;;5048540;28;20484;-60
2022/07/23 06:46:47;;;;;;;1.27;0.77;;;15.90;99.90;;;;;;5047535;28;20128;-60
2022/07/23 06:49:13;;;;;;;1.20;0.73;;;16.20;99.90;;;;;;5047855;28;20096;-59
2022/07/23 06:51:38;;;;;;;1.33;0.43;;;16.10;99.90;;;;;;5046982;28;20124;-59
2022/07/23 06:54:04;;;;;;;3.95;0.68;;;16.20;99.90;;;;;;5047327;28;20049;-59
2022/07/23 06:56:30;;;;;;;1.08;0.40;;;16.30;99.90;;;;;;5047431;28;20099;-59
2022/07/23 06:58:56;;;;;;;0.93;0.40;;;16.40;99.90;;;;;;5047115;28;20053;-61
2022/07/23 07:01:22;;;;;;;0.40;0.30;;;16.50;99.90;;;;;;5048004;28;20049;-61
2022/07/23 07:03:48;;;;;;;1.33;0.47;;;16.50;99.90;;;;;;5046820;28;20045;-60
2022/07/23 07:06:14;;;;;;;1.13;0.40;;;16.60;99.90;;;;;;5046190;28;20040;-60
2022/07/23 07:08:39;;;;;;;0.30;0.30;;;16.60;99.90;;;;;;5047281;28;20037;-60
2022/07/23 07:11:05;;;;;;;1.00;0.30;;;16.60;99.90;;;;;;5047315;28;20441;-60
2022/07/23 07:13:31;;;;;;;0.43;0.35;;;16.70;99.90;;;;;;5046687;28;20127;-60
2022/07/23 07:15:56;;;;;;;0.57;0.45;;;16.70;99.90;;;;;;5047142;28;20116;-60
2022/07/23 07:18:22;;;;;;;2.95;0.60;;;16.80;99.90;;;;;;5047839;28;20052;-61
2022/07/23 07:20:48;;;;;;;1.08;0.40;;;16.90;99.90;;;;;;5046290;28;20041;-61
2022/07/23 07:23:14;;;;;;;2.65;0.50;;;17.00;99.90;;;;;;5046786;28;20057;-61
2022/07/23 07:25:39;;;;;;;0.90;0.50;;;17.10;99.90;;;;;;5047071;28;20075;-61
2022/07/23 07:28:05;;;;;;;1.70;0.40;;;17.10;99.90;;;;;;5046017;28;20119;-61
2022/07/23 07:30:31;;;;;;;0.80;0.30;;;17.00;99.90;;;;;;5046895;28;20041;-60
2022/07/23 07:32:56;;;;;;;3.17;0.50;;;17.10;99.90;;;;;;5046877;28;20049;-61
2022/07/23 07:35:22;;;;;;;1.13;0.45;;;17.10;99.90;;;;;;5046492;28;20143;-61
2022/07/23 07:37:48;;;;;;;0.77;0.50;;;17.10;99.90;;;;;;5046116;28;20041;-60
2022/07/23 07:40:13;;;;;;;4.35;1.40;;;17.10;99.90;;;;;;5047038;28;20052;-60
2022/07/23 07:42:47;;;;;;;2.33;0.70;;;17.30;99.90;;;;;;5045681;28;20119;-60
2022/07/23 07:45:12;;;;;;;1.70;0.60;;;17.30;99.90;;;;;;5046581;28;20542;-60
2022/07/23 07:47:38;;;;;;;1.15;0.50;;;17.40;99.90;;;;;;5046527;28;20033;-60
2022/07/23 07:50:04;;;;;;;1.58;0.35;;;17.40;99.90;;;;;;5045373;28;20052;-60
2022/07/23 07:52:29;;;;;;;1.13;0.32;;;17.40;99.90;;;;;;5046580;28;20142;-60
2022/07/23 07:54:55;;;;;;;2.30;0.40;;;17.50;99.90;;;;;;5045850;28;20041;-60
2022/07/23 07:57:21;;;;;;;0.73;0.45;;;17.40;99.90;;;;;;5046409;28;20546;-60
2022/07/23 07:59:46;;;;;;;2.05;0.35;;;17.40;99.90;;;;;;5046022;28;20056;-60
2022/07/23 08:02:12;;;;;;;4.05;0.50;;;17.50;99.90;;;;;;5045532;28;20049;-60
2022/07/23 08:04:37;;;;;;;0.38;0.32;;;17.60;99.90;;;;;;5046296;28;20053;-60
2022/07/23 08:07:03;;;;;;;1.08;0.40;;;17.70;99.90;;;;;;5045863;28;20045;-60
2022/07/23 08:09:29;;;;;;;1.20;0.32;;;17.90;99.90;;;;;;5045667;28;20053;-60
2022/07/23 08:11:54;;;;;;;1.70;0.45;;;18.00;99.90;;;;;;5046621;28;20084;-60
2022/07/23 08:14:20;;;;;;;2.67;0.50;;;18.00;99.90;;;;;;5046216;28;20352;-60
2022/07/23 08:16:46;;;;;;;1.42;0.50;;;18.00;99.90;;;;;;5044725;28;20075;-60
2022/07/23 08:19:11;;;;;;;3.60;0.60;;;18.00;99.90;;;;;;5046794;28;20044;-60
2022/07/23 08:21:37;;;;;;;1.80;0.50;;;17.90;99.90;;;;;;5046119;28;20118;-60
2022/07/23 08:24:03;;;;;;;2.63;0.55;;;17.90;99.90;;;;;;5045074;28;20053;-60
2022/07/23 08:26:28;;;;;;;2.45;0.50;;;17.90;99.90;;;;;;5046401;28;20193;-60
2022/07/23 08:28:54;;;;;;;1.77;0.60;;;17.90;99.90;;;;;;5046557;28;20118;-60
2022/07/23 08:31:19;;;;;;;0.95;0.35;;;17.90;99.90;;;;;;5045778;28;20111;-60
2022/07/23 08:33:45;;;;;;;1.17;0.47;;;18.00;99.90;;;;;;5046066;28;20084;-60
2022/07/23 08:36:11;;;;;;;4.10;0.75;;;18.10;99.90;;;;;;5046122;28;20037;-60
2022/07/23 08:38:36;;;;;;;1.20;0.43;;;18.10;99.90;;;;;;5045522;28;20052;-60
2022/07/23 08:41:04;;;;;;;2.05;0.55;;;18.20;99.90;;;;;;5045764;28;20382;-60
2022/07/23 08:43:33;;;;;;;2.97;0.55;;;18.30;99.90;;;;;;5046206;28;20060;-60
2022/07/23 08:46:00;;;;;;;2.83;0.70;;;18.30;99.90;;;;;;5044809;28;20523;-60
2022/07/23 08:48:28;;;;;;;1.15;0.50;;;18.30;99.90;;;;;;5046785;28;20175;-61
2022/07/23 08:50:56;;;;;;;1.30;0.45;;;18.30;99.90;;;;;;5046179;28;20302;-61
2022/07/23 08:53:23;;;;;;;4.63;0.70;;;18.20;99.90;;;;;;5045885;28;20041;-60
2022/07/23 08:55:52;;;;;;;0.40;0.22;;;18.20;99.90;;;;;;5045857;28;20071;-60
2022/07/23 08:58:18;;;;;;;1.80;0.65;;;18.20;99.90;;;;;;5044933;28;20385;-60
2022/07/23 09:00:45;;;;;;;1.13;0.38;;;18.10;99.90;;;;;;5045742;28;20512;-60
2022/07/23 09:03:23;;;;;;;1.92;0.40;;;18.10;99.90;;;;;;5045844;28;20052;-60
2022/07/23 09:05:51;;;;;;;1.25;0.50;;;18.20;99.90;;;;;;5045089;28;20061;-60
2022/07/23 09:08:19;;;;;;;3.08;0.40;;;18.10;99.90;;;;;;5046305;28;20724;-61
2022/07/23 09:10:57;;;;;;;1.50;0.35;;;18.10;99.90;;;;;;5045854;28;20059;-61
2022/07/23 09:13:36;;;;;;;0.70;0.40;;;18.10;99.90;;;;;;5045474;28;20049;-61
2022/07/23 09:16:10;;;;;;;2.53;0.50;;;18.10;99.90;;;;;;5045578;28;20041;-60
2022/07/23 09:18:53;;;;;;;4.28;0.52;;;18.10;99.90;;;;;;5045814;28;20049;-60
2022/07/23 09:21:28;;;;;;;1.85;0.68;;;18.10;99.90;;;;;;5045249;28;20060;-60
2022/07/23 09:24:06;;;;;;;1.88;0.73;;;18.10;99.90;;;;;;5045921;28;20045;-60
2022/07/23 09:26:49;;;;;;;0.88;0.43;;;18.10;99.90;;;;;;5045242;28;20045;-60
2022/07/23 09:29:19;;;;;;;1.55;0.50;;;18.10;99.90;;;;;;5047545;28;20049;-60
2022/07/23 09:31:58;;;;;;;1.13;0.85;;;18.20;99.90;;;;;;5049313;28;20064;-60
2022/07/23 09:34:25;;;;;;;2.20;0.50;;;18.20;99.90;;;;;;5048862;28;20044;-60
2022/07/23 09:36:57;;;;;;;1.98;0.52;;;18.20;99.90;;;;;;5049209;28;20492;-60
2022/07/23 09:39:34;;;;;;;3.23;0.60;;;18.20;99.90;;;;;;5049817;28;20045;-60
2022/07/23 09:42:17;;;;;;;4.10;0.85;;;18.30;99.90;;;;;;5048307;28;20306;-61
2022/07/23 09:45:00;;;;;;;2.42;0.55;;;18.20;99.90;;;;;;5048725;28;20511;-60
2022/07/23 09:47:31;;;;;;;2.63;0.55;;;18.20;99.90;;;;;;5048508;28;20037;-60
2022/07/23 09:50:19;;;;;;;3.22;0.60;;;18.20;99.90;;;;;;5048778;28;20049;-60
2022/07/23 09:52:48;;;;;;;2.72;0.55;;;18.20;99.90;;;;;;5048768;28;20325;-60
2022/07/23 09:55:14;;;;;;;3.05;0.75;;;18.20;99.90;;;;;;5047988;28;20045;-60
2022/07/23 09:57:50;;;;;;;2.13;0.45;;;18.10;99.90;;;;;;5048181;28;20077;-60
2022/07/23 10:00:16;;;;;;;2.58;0.47;;;18.10;99.90;;;;;;5048932;28;20049;-60
2022/07/23 10:02:45;;;;;;;1.45;0.52;;;18.10;99.90;;;;;;5047720;28;20041;-60
2022/07/23 10:05:11;;;;;;;1.35;0.75;;;18.20;99.90;;;;;;5048795;28;20080;-60
2022/07/23 10:07:39;;;;;;;1.60;0.70;;;18.20;99.90;;;;;;5048586;28;20115;-60
2022/07/23 10:10:06;;;;;;;1.77;0.65;;;18.20;99.90;;;;;;5047354;28;20132;-59
2022/07/23 10:15:06;;;;;;;1.33;0.63;;;18.30;99.90;;;;;;5048421;28;20438;-60
2022/07/23 10:17:32;;;;;;;2.95;0.70;;;18.40;99.90;;;;;;5047409;28;20040;-60
2022/07/23 10:19:58;;;;;;;3.33;1.08;;;18.50;99.90;;;;;;5048073;28;20106;-60
2022/07/23 10:22:28;;;;;;;3.38;0.60;;;18.60;99.90;;;;;;5048743;28;20076;-60
2022/07/23 10:25:17;;;;;;;2.90;0.60;;;18.60;99.90;;;;;;5048015;28;20134;-60
2022/07/23 10:28:10;;;;;;;2.28;0.60;;;18.70;99.90;;;;;;5048024;28;20051;-60
2022/07/23 10:30:59;;;;;;;7.32;1.05;;;18.80;99.90;;;;;;5047207;28;20507;-61
2022/07/23 10:33:42;;;;;;;1.30;0.73;;;18.80;99.90;;;;;;5048772;28;20041;-60
2022/07/23 10:36:28;;;;;;;0.85;0.75;;;18.80;99.90;;;;;;5048032;28;20057;-60
2022/07/23 10:39:14;;;;;;;1.70;0.93;;;18.80;99.90;;;;;;5047131;28;20120;-60
2022/07/23 10:41:41;;;;;;;4.47;0.70;;;18.80;99.90;;;;;;5048055;28;20044;-60
2022/07/23 10:44:10;;;;;;;1.52;0.98;;;19.00;99.90;;;;;;5046955;28;20180;-60
2022/07/23 10:49:28;;;;;;;1.90;0.88;;;19.10;99.90;;;;;;5047474;28;20384;-60
2022/07/23 10:52:19;;;;;;;0.95;0.70;;;19.10;99.90;;;;;;5047117;28;20059;-60
2022/07/23 10:54:53;;;;;;;1.95;0.65;;;19.10;99.90;;;;;;5047898;28;20052;-60
2022/07/23 10:57:21;;;;;;;4.88;0.88;;;19.00;99.90;;;;;;5047471;28;20057;-60
2022/07/23 11:00:12;;;;;;;3.63;0.90;;;18.90;99.90;;;;;;5046705;28;20218;-60
2022/07/23 11:02:40;;;;;;;0.90;0.60;;;19.00;99.90;;;;;;5047139;28;20598;-60
2022/07/23 11:05:11;;;;;;;1.58;0.85;;;18.90;99.90;;;;;;5046686;28;20048;-60
2022/07/23 11:08:07;;;;;;;3.55;1.00;;;19.00;99.90;;;;;;5047433;28;20044;-60
2022/07/23 11:10:38;;;;;;;2.40;0.75;;;18.90;99.90;;;;;;5044659;28;20065;-60
2022/07/23 11:13:22;;;;;;;1.83;0.90;;;19.00;99.90;;;;;;5046666;28;20051;-60
2022/07/23 11:16:05;;;;;;;1.73;0.82;;;19.10;99.90;;;;;;5046912;28;20088;-60
2022/07/23 11:18:40;;;;;;;1.90;0.75;;;19.10;99.90;;;;;;5046772;28;20067;-60
2022/07/23 11:21:26;;;;;;;1.35;0.85;;;19.20;99.90;;;;;;5046280;28;20119;-60
2022/07/23 11:24:06;;;;;;;1.00;0.82;;;19.30;99.90;;;;;;5045643;28;20053;-60
2022/07/23 11:26:41;;;;;;;2.75;0.70;;;19.40;99.90;;;;;;5046454;28;20049;-60
2022/07/23 11:29:39;;;;;;;2.15;0.68;;;19.50;99.90;;;;;;5046585;28;20128;-60
2022/07/23 11:32:18;;;;;;;0.98;0.50;;;19.50;99.90;;;;;;5034408;28;20522;-60
2022/07/23 11:34:48;;;;;;;1.63;0.93;;;19.60;99.90;;;;;;5046274;28;20053;-60
2022/07/23 11:37:37;;;;;;;2.72;1.02;;;19.60;99.90;;;;;;5046791;28;20043;-60
2022/07/23 11:40:09;;;;;;;0.90;0.60;;;19.60;99.90;;;;;;5046030;28;20231;-60
2022/07/23 11:42:35;;;;;;;;;;;19.60;99.90;;;;;;5047388;28;20055;-60
2022/07/23 11:45:01;;;;;;;2.17;0.50;;;19.60;99.90;;;;;;5046551;28;19947;-60
2022/07/23 11:47:27;;;;;;;1.25;0.60;;;19.60;99.90;;;;;;5045757;28;20049;-60
2022/07/23 11:50:00;;;;;;;1.58;0.70;;;19.60;99.90;;;;;;5046855;28;20385;-60
2022/07/23 11:52:28;;;;;;;0.50;0.50;;;19.70;99.90;;;;;;5045285;28;20049;-60
2022/07/23 11:54:56;;;;;;;2.33;0.75;;;19.70;99.90;;;;;;5046260;28;20076;-60
2022/07/23 11:57:28;;;;;;;1.20;0.70;;;19.90;99.90;;;;;;5062409;28;20057;-60
2022/07/23 11:59:57;;;;;;;0.60;0.60;;;19.90;99.90;;;;;;5046805;28;20052;-60
2022/07/23 12:02:23;;;;;;;1.27;0.68;;;20.10;99.90;;;;;;5046276;28;20573;-60
2022/07/23 12:04:51;;;;;;;1.02;0.60;;;20.30;99.90;;;;;;5045971;28;20152;-60
2022/07/23 12:07:26;;;;;;;1.23;0.63;;;20.40;99.90;;;;;;5046810;28;20575;-60
2022/07/23 12:09:52;;;;;;;4.03;0.88;;;20.50;99.90;;;;;;5044693;28;20045;-60
2022/07/23 12:12:18;;;;;;;1.40;0.63;;;20.50;99.90;;;;;;5046394;28;20045;-60
2022/07/23 12:14:48;;;;;;;1.67;0.70;;;20.50;99.90;;;;;;5046361;28;20120;-60
2022/07/23 12:17:14;;;;;;;2.25;0.90;;;20.60;99.90;;;;;;5046132;28;20056;-60
2022/07/23 12:19:39;;;;;;;1.38;0.88;;;20.70;99.90;;;;;;5046513;28;20044;-60
2022/07/23 12:22:05;;;;;;;1.55;0.60;;;20.80;99.90;;;;;;5046026;28;20041;-60
2022/07/23 12:24:31;;;;;;;0.98;0.85;;;21.00;99.90;;;;;;5045602;28;20520;-60
2022/07/23 12:27:13;;;;;;;1.75;0.90;;;21.10;99.90;;;;;;5046184;28;20041;-60
2022/07/23 12:29:39;;;;;;;0.85;0.70;;;21.20;99.90;;;;;;5045599;28;20041;-60
2022/07/23 12:32:26;;;;;;;1.50;0.70;;;21.20;99.90;;;;;;5046135;28;20037;-60
2022/07/23 12:35:06;;;;;;;2.60;0.90;;;21.20;99.90;;;;;;5046585;28;20051;-60
2022/07/23 12:37:37;;;;;;;2.17;0.80;;;21.10;99.90;;;;;;5045303;28;20099;-60
2022/07/23 12:40:29;;;;;;;1.63;0.70;;;21.00;99.90;;;;;;5046022;28;20439;-60
2022/07/23 12:43:07;;;;;;;2.40;0.70;;;20.90;99.90;;;;;;5046216;28;20041;-60
2022/07/23 12:45:47;;;;;;;4.30;0.98;;;21.00;99.90;;;;;;5045245;28;20174;-60
2022/07/23 12:48:49;;;;;;;0.95;0.77;;;21.40;99.90;;;;;;5046174;28;20083;-60
2022/07/23 12:51:16;;;;;;;0.93;0.60;;;21.50;99.90;;;;;;5038281;28;20048;-60
2022/07/23 12:53:44;;;;;;;2.35;0.90;;;21.60;99.90;;;;;;5046189;28;20048;-60
2022/07/23 12:56:15;;;;;;;2.28;0.80;;;21.60;99.90;;;;;;5045607;28;20053;-60
2022/07/23 12:58:47;;;;;;;3.95;0.82;;;21.80;99.90;;;;;;5045100;28;20053;-60